createdAt,value
2018-12-17T00:02:07.247Z,99714.27
2018-12-17T00:04:36.792Z,99705.56
2018-12-17T00:07:06.641Z,99712.48
2018-12-17T00:09:36.620Z,99712.64
2018-12-17T00:12:06.330Z,99709.34
2018-12-17T00:14:35.886Z,99709.41
2018-12-17T00:17:05.551Z,99711.45
2018-12-17T00:19:35.156Z,99707.58
2018-12-17T00:22:04.968Z,99705.39
2018-12-17T00:24:34.620Z,99713.23
2018-12-17T00:27:04.267Z,99714.83
2018-12-17T00:29:33.807Z,99719.48
2018-12-17T00:32:03.384Z,99715.25
2018-12-17T00:34:32.999Z,99720.73
2018-12-17T00:37:02.520Z,99719.09
2018-12-17T00:39:32.065Z,99723.95
2018-12-17T00:42:01.637Z,99724.02
2018-12-17T00:44:31.234Z,99721.00
2018-12-17T00:47:00.816Z,99731.48
2018-12-17T00:49:30.341Z,99720.38
2018-12-17T00:51:59.898Z,99718.59
2018-12-17T00:54:29.872Z,99721.73
2018-12-17T00:56:59.480Z,99727.58
2018-12-17T00:59:29.208Z,99735.13
2018-12-17T01:01:59.306Z,99733.34
2018-12-17T01:04:28.955Z,99734.69
2018-12-17T01:06:58.683Z,99738.92
2018-12-17T01:09:28.376Z,99736.97
2018-12-17T01:11:58.080Z,99733.53
2018-12-17T01:14:27.848Z,99743.45
2018-12-17T01:16:57.508Z,99738.92
2018-12-17T01:19:28.079Z,99733.14
2018-12-17T01:21:57.757Z,99735.05
2018-12-17T01:24:27.358Z,99743.09
2018-12-17T01:26:57.021Z,99745.10
2018-12-17T01:29:26.690Z,99749.73
2018-12-17T01:31:56.276Z,99755.59
2018-12-17T01:34:25.932Z,99744.73
2018-12-17T01:36:55.771Z,99742.59
2018-12-17T01:39:25.420Z,99749.20
2018-12-17T01:41:55.016Z,99746.14
2018-12-17T01:44:24.740Z,99748.92
2018-12-17T01:46:54.301Z,99752.31
2018-12-17T01:49:24.332Z,99746.03
2018-12-17T01:51:53.844Z,99751.02
2018-12-17T01:54:23.474Z,99743.88
2018-12-17T01:56:53.084Z,99743.58
2018-12-17T01:59:22.651Z,99746.45
2018-12-17T02:01:52.696Z,99743.59
2018-12-17T02:04:22.400Z,99744.41
2018-12-17T02:06:52.111Z,99739.78
2018-12-17T02:09:21.641Z,99739.38
2018-12-17T02:11:51.215Z,99722.66
2018-12-17T02:14:20.751Z,99733.59
2018-12-17T02:16:50.263Z,99748.77
2018-12-17T02:19:19.888Z,99741.33
2018-12-17T02:21:49.550Z,99746.95
2018-12-17T02:24:20.103Z,99744.27
2018-12-17T02:26:49.743Z,99745.50
2018-12-17T02:29:19.299Z,99744.64
2018-12-17T02:31:48.854Z,99740.38
2018-12-17T02:34:18.404Z,99738.72
2018-12-17T02:36:48.009Z,99735.84
2018-12-17T02:39:17.537Z,99746.79
2018-12-17T02:41:47.052Z,99744.70
2018-12-17T02:44:16.823Z,99744.64
2018-12-17T02:46:46.303Z,99744.17
2018-12-17T02:49:16.172Z,99740.77
2018-12-17T02:51:45.790Z,99737.73
2018-12-17T02:54:15.361Z,99740.94
2018-12-17T02:56:44.952Z,99736.02
2018-12-17T02:59:14.605Z,99730.98
2018-12-17T03:01:44.277Z,99741.41
2018-12-17T03:04:13.816Z,99735.42
2018-12-17T03:06:43.496Z,99741.70
2018-12-17T03:09:13.135Z,99734.85
2018-12-17T03:11:42.685Z,99740.14
2018-12-17T03:16:47.187Z,99749.83
2018-12-17T03:19:17.167Z,99748.67
2018-12-17T03:21:46.817Z,99756.22
2018-12-17T03:24:16.512Z,99760.78
2018-12-17T03:26:46.111Z,99752.45
2018-12-17T03:29:15.640Z,99760.12
2018-12-17T03:31:45.481Z,99753.80
2018-12-17T03:34:15.249Z,99753.56
2018-12-17T03:36:44.763Z,99744.55
2018-12-17T03:39:14.406Z,99752.28
2018-12-17T03:41:43.920Z,99754.66
2018-12-17T03:44:13.453Z,99748.98
2018-12-17T03:46:43.034Z,99754.30
2018-12-17T03:49:12.566Z,99749.27
2018-12-17T03:51:42.297Z,99746.47
2018-12-17T03:54:11.931Z,99741.23
2018-12-17T03:56:47.026Z,99741.41
2018-12-17T03:59:16.648Z,99755.06
2018-12-17T04:01:46.196Z,99759.26
2018-12-17T04:04:15.878Z,99757.97
2018-12-17T04:06:45.450Z,99754.56
2018-12-17T04:09:15.064Z,99760.28
2018-12-17T04:11:44.678Z,99768.48
2018-12-17T04:14:14.277Z,99764.31
2018-12-17T04:16:43.876Z,99768.67
2018-12-17T04:19:13.521Z,99779.39
2018-12-17T04:21:43.230Z,99782.59
2018-12-17T04:24:12.798Z,99785.27
2018-12-17T04:26:42.354Z,99788.44
2018-12-17T04:29:12.064Z,99791.53
2018-12-17T04:31:41.647Z,99799.93
2018-12-17T04:34:11.164Z,99791.64
2018-12-17T04:36:40.748Z,99791.20
2018-12-17T04:39:10.334Z,99793.25
2018-12-17T04:41:40.015Z,99791.95
2018-12-17T04:44:09.610Z,99789.13
2018-12-17T04:46:39.168Z,99798.39
2018-12-17T04:49:08.842Z,99792.19
2018-12-17T04:51:38.336Z,99791.25
2018-12-17T04:54:07.932Z,99784.04
2018-12-17T04:56:37.450Z,99798.99
2018-12-17T04:59:14.403Z,99790.22
2018-12-17T05:01:38.734Z,99798.22
2018-12-17T05:04:14.429Z,99808.37
2018-12-17T05:06:46.520Z,99810.41
2018-12-17T05:09:22.787Z,99816.91
2018-12-17T05:11:54.610Z,99813.89
2018-12-17T05:14:28.054Z,99820.95
2018-12-17T05:16:59.084Z,99826.16
2018-12-17T05:19:28.685Z,99828.81
2018-12-17T05:21:58.289Z,99833.19
2018-12-17T05:24:28.620Z,99839.47
2018-12-17T05:27:01.526Z,99829.64
2018-12-17T05:29:31.109Z,99840.52
2018-12-17T05:32:00.789Z,99834.05
2018-12-17T05:34:30.413Z,99840.66
2018-12-17T05:37:00.005Z,99848.55
2018-12-17T05:39:29.612Z,99844.85
2018-12-17T05:41:59.089Z,99845.92
2018-12-17T05:44:28.708Z,99850.09
2018-12-17T05:46:58.353Z,99849.70
2018-12-17T05:49:27.846Z,99847.97
2018-12-17T05:51:57.467Z,99850.48
2018-12-17T05:54:27.057Z,99847.58
2018-12-17T05:56:56.573Z,99851.95
2018-12-17T05:59:28.728Z,99850.48
2018-12-17T06:01:57.780Z,99853.09
2018-12-17T06:04:27.340Z,99856.00
2018-12-17T06:06:56.956Z,99857.59
2018-12-17T06:09:26.533Z,99857.41
2018-12-17T06:11:56.182Z,99858.27
2018-12-17T06:14:25.672Z,99865.30
2018-12-17T06:16:55.292Z,99867.69
2018-12-17T06:22:08.653Z,99881.35
2018-12-17T06:24:38.238Z,99879.08
2018-12-17T06:27:08.631Z,99880.34
2018-12-17T06:29:38.079Z,99872.84
2018-12-17T06:32:07.599Z,99876.72
2018-12-17T06:34:37.098Z,99863.42
2018-12-17T06:37:06.664Z,99866.73
2018-12-17T06:39:36.330Z,99866.30
2018-12-17T06:42:05.847Z,99868.53
2018-12-17T06:44:35.309Z,99874.02
2018-12-17T06:47:04.865Z,99880.84
2018-12-17T06:49:35.527Z,99884.72
2018-12-17T06:52:05.192Z,99888.92
2018-12-17T06:54:34.799Z,99895.95
2018-12-17T06:57:04.352Z,99909.80
2018-12-17T06:59:33.909Z,99918.57
2018-12-17T07:02:03.720Z,99909.59
2018-12-17T07:04:33.224Z,99923.63
2018-12-17T07:07:02.805Z,99919.86
2018-12-17T07:09:32.337Z,99922.33
2018-12-17T07:12:02.980Z,99932.39
2018-12-17T07:14:36.447Z,99929.34
2018-12-17T07:17:04.880Z,99938.23
2018-12-17T07:19:34.440Z,99947.28
2018-12-17T07:22:03.995Z,99948.06
2018-12-17T07:24:33.752Z,99945.41
2018-12-17T07:27:03.495Z,99953.20
2018-12-17T07:29:33.713Z,99952.92
2018-12-17T07:32:03.225Z,99961.50
2018-12-17T07:34:33.112Z,99967.58
2018-12-17T07:37:02.694Z,99958.89
2018-12-17T07:39:33.021Z,99967.44
2018-12-17T07:42:07.894Z,99967.55
2018-12-17T07:44:37.455Z,99973.08
2018-12-17T07:47:07.663Z,99979.80
2018-12-17T07:49:37.275Z,99975.55
2018-12-17T07:52:06.872Z,99987.59
2018-12-17T07:54:36.327Z,99991.00
2018-12-17T07:57:05.818Z,99988.23
2018-12-17T07:59:35.731Z,99996.16
2018-12-17T08:02:05.335Z,99993.14
2018-12-17T08:04:34.955Z,100001.52
2018-12-17T08:07:05.356Z,100001.35
2018-12-17T08:09:34.944Z,100008.98
2018-12-17T08:12:04.515Z,100014.02
2018-12-17T08:14:34.074Z,100014.91
2018-12-17T08:17:04.627Z,100022.77
2018-12-17T08:19:34.117Z,100020.27
2018-12-17T08:22:03.692Z,100036.66
2018-12-17T08:24:35.370Z,100043.22
2018-12-17T08:27:10.690Z,100044.33
2018-12-17T08:29:40.283Z,100047.17
2018-12-17T08:32:10.200Z,100055.33
2018-12-17T08:34:39.924Z,100056.77
2018-12-17T08:37:10.574Z,100057.55
2018-12-17T08:39:40.120Z,100061.44
2018-12-17T08:42:09.981Z,100069.74
2018-12-17T08:44:39.729Z,100070.14
2018-12-17T08:47:09.229Z,100077.70
2018-12-17T08:49:38.835Z,100079.86
2018-12-17T08:52:08.568Z,100078.31
2018-12-17T08:54:38.107Z,100073.63
2018-12-17T08:57:08.380Z,100074.98
2018-12-17T08:59:38.549Z,100077.86
2018-12-17T09:02:08.152Z,100093.00
2018-12-17T09:04:39.029Z,100091.45
2018-12-17T09:07:08.627Z,100092.02
2018-12-17T09:09:38.078Z,100105.30
2018-12-17T09:12:07.736Z,100099.64
2018-12-17T09:14:37.203Z,100099.57
2018-12-17T09:17:06.684Z,100101.86
2018-12-17T09:19:36.552Z,100096.27
2018-12-17T09:22:06.400Z,100100.91
2018-12-17T09:24:36.077Z,100094.17
2018-12-17T09:27:05.660Z,100094.70
2018-12-17T09:29:35.408Z,100097.66
2018-12-17T09:32:05.234Z,100103.95
2018-12-17T09:34:35.300Z,100099.95
2018-12-17T09:37:05.138Z,100096.52
2018-12-17T09:39:35.233Z,100103.37
2018-12-17T09:42:04.728Z,100102.31
2018-12-17T09:44:34.231Z,100102.13
2018-12-17T09:47:03.766Z,100099.89
2018-12-17T09:49:33.613Z,100098.52
2018-12-17T09:52:03.091Z,100098.09
2018-12-17T09:54:32.722Z,100090.72
2018-12-17T09:57:02.302Z,100089.52
2018-12-17T09:59:31.920Z,100081.27
2018-12-17T10:02:01.401Z,100085.84
2018-12-17T10:04:31.157Z,100076.67
2018-12-17T10:07:00.681Z,100077.56
2018-12-17T10:09:30.583Z,100081.84
2018-12-17T10:12:00.261Z,100079.48
2018-12-17T10:14:29.845Z,100080.35
2018-12-17T10:16:59.467Z,100076.73
2018-12-17T10:19:29.707Z,100083.65
2018-12-17T10:21:59.191Z,100076.22
2018-12-17T10:24:28.671Z,100083.80
2018-12-17T10:26:58.360Z,100086.92
2018-12-17T10:29:27.894Z,100075.94
2018-12-17T10:31:57.609Z,100082.64
2018-12-17T10:34:27.091Z,100084.22
2018-12-17T10:36:56.779Z,100079.55
2018-12-17T10:39:36.368Z,100072.44
2018-12-17T10:42:07.396Z,100084.36
2018-12-17T10:44:36.991Z,100088.49
2018-12-17T10:49:41.195Z,100089.81
2018-12-17T10:52:10.725Z,100085.45
2018-12-17T10:54:41.332Z,100086.36
2018-12-17T10:57:10.960Z,100078.66
2018-12-17T10:59:40.483Z,100086.79
2018-12-17T11:02:14.011Z,100084.09
2018-12-17T11:04:47.059Z,100084.19
2018-12-17T11:07:16.650Z,100084.03
2018-12-17T11:09:46.453Z,100087.13
2018-12-17T11:12:16.033Z,100087.14
2018-12-17T11:14:45.507Z,100089.84
2018-12-17T11:17:15.164Z,100092.98
2018-12-17T11:19:44.672Z,100097.81
2018-12-17T11:22:14.268Z,100096.42
2018-12-17T11:24:44.079Z,100106.81
2018-12-17T11:27:13.726Z,100097.75
2018-12-17T11:29:48.939Z,100095.03
2018-12-17T11:32:18.429Z,100096.97
2018-12-17T11:34:48.448Z,100097.81
2018-12-17T11:37:18.116Z,100096.91
2018-12-17T11:39:47.810Z,100092.04
2018-12-17T11:42:17.492Z,100091.58
2018-12-17T11:44:46.951Z,100092.20
2018-12-17T11:47:16.602Z,100094.67
2018-12-17T11:49:46.059Z,100096.71
2018-12-17T11:52:15.563Z,100094.30
2018-12-17T11:54:45.061Z,100098.11
2018-12-17T11:57:55.649Z,100107.48
2018-12-17T12:00:27.236Z,100105.82
2018-12-17T12:03:02.572Z,100106.16
2018-12-17T12:05:32.096Z,100108.96
2018-12-17T12:08:01.623Z,100113.47
2018-12-17T12:10:31.126Z,100112.32
2018-12-17T12:13:00.647Z,100115.25
2018-12-17T12:15:30.112Z,100109.94
2018-12-17T12:17:59.694Z,100111.03
2018-12-17T12:20:29.329Z,100111.84
2018-12-17T12:22:59.077Z,100110.26
2018-12-17T12:25:28.771Z,100117.40
2018-12-17T12:28:01.732Z,100125.92
2018-12-17T12:30:32.071Z,100126.42
2018-12-17T12:33:01.578Z,100126.42
2018-12-17T12:35:31.170Z,100131.03
2018-12-17T12:38:00.906Z,100130.56
2018-12-17T12:40:30.455Z,100129.55
2018-12-17T12:42:59.960Z,100140.41
2018-12-17T12:45:29.578Z,100145.98
2018-12-17T12:47:59.071Z,100148.28
2018-12-17T12:50:28.544Z,100147.11
2018-12-17T12:52:58.868Z,100151.94
2018-12-17T12:55:29.783Z,100151.20
2018-12-17T12:58:03.615Z,100151.94
2018-12-17T13:00:36.796Z,100153.13
2018-12-17T13:03:06.490Z,100157.27
2018-12-17T13:05:36.350Z,100162.05
2018-12-17T13:08:05.886Z,100163.95
2018-12-17T13:10:35.653Z,100159.91
2018-12-17T13:13:05.294Z,100167.28
2018-12-17T13:15:34.728Z,100168.43
2018-12-17T13:18:04.414Z,100170.84
2018-12-17T13:20:33.891Z,100168.74
2018-12-17T13:23:03.467Z,100173.01
2018-12-17T13:25:37.106Z,100175.72
2018-12-17T13:28:07.303Z,100175.63
2018-12-17T13:30:36.839Z,100186.91
2018-12-17T13:33:07.209Z,100193.20
2018-12-17T13:35:36.678Z,100204.34
2018-12-17T13:38:08.169Z,100205.02
2018-12-17T13:40:39.166Z,100201.81
2018-12-17T13:43:08.806Z,100208.25
2018-12-17T13:45:39.067Z,100207.78
2018-12-17T13:48:08.760Z,100218.03
2018-12-17T13:50:41.440Z,100220.59
2018-12-17T13:53:16.252Z,100223.48
2018-12-17T13:55:45.751Z,100228.13
2018-12-17T13:58:15.332Z,100235.91
2018-12-17T14:00:44.932Z,100247.15
2018-12-17T14:03:14.476Z,100251.42
2018-12-17T14:05:44.069Z,100253.21
2018-12-17T14:08:20.302Z,100263.49
2018-12-17T14:10:53.871Z,100266.20
2018-12-17T14:13:23.770Z,100270.64
2018-12-17T14:15:57.358Z,100271.65
2018-12-17T14:18:31.987Z,100272.70
2018-12-17T14:21:06.869Z,100275.22
2018-12-17T14:23:36.997Z,100281.32
2018-12-17T14:26:06.836Z,100278.33
2018-12-17T14:28:36.541Z,100277.28
2018-12-17T14:31:06.179Z,100274.55
2018-12-17T14:33:36.091Z,100272.14
2018-12-17T14:36:10.915Z,100267.53
2018-12-17T14:38:40.571Z,100271.71
2018-12-17T14:41:10.111Z,100268.91
2018-12-17T14:43:39.744Z,100272.61
2018-12-17T14:46:09.420Z,100279.98
2018-12-17T14:48:39.006Z,100283.50
2018-12-17T14:51:08.509Z,100280.83
2018-12-17T14:53:37.972Z,100281.13
2018-12-17T14:56:07.433Z,100289.91
2018-12-17T14:58:44.232Z,100288.55
2018-12-17T15:01:08.476Z,100295.70
2018-12-17T15:03:38.076Z,100297.56
2018-12-17T15:06:07.603Z,100298.71
2018-12-17T15:08:37.132Z,100302.59
2018-12-17T15:11:06.622Z,100309.80
2018-12-17T15:13:36.634Z,100302.22
2018-12-17T15:16:06.356Z,100306.97
2018-12-17T15:18:35.900Z,100308.41
2018-12-17T15:21:05.469Z,100313.22
2018-12-17T15:23:35.094Z,100315.34
2018-12-17T15:26:04.604Z,100315.63
2018-12-17T15:28:34.166Z,100317.34
2018-12-17T15:31:03.745Z,100324.09
2018-12-17T15:33:33.234Z,100331.33
2018-12-17T15:36:02.723Z,100330.58
2018-12-17T15:38:32.251Z,100332.61
2018-12-17T15:41:01.817Z,100350.56
2018-12-17T15:43:31.367Z,100348.38
2018-12-17T15:46:00.880Z,100352.14
2018-12-17T15:48:30.377Z,100354.78
2018-12-17T15:50:59.880Z,100355.60
2018-12-17T15:53:29.545Z,100360.08
2018-12-17T15:55:59.168Z,100374.00
2018-12-17T15:58:29.045Z,100375.16
2018-12-17T16:00:58.516Z,100380.11
2018-12-17T16:03:28.021Z,100387.09
2018-12-17T16:05:57.586Z,100384.23
2018-12-17T16:08:27.156Z,100387.45
2018-12-17T16:10:56.649Z,100387.45
2018-12-17T16:13:26.180Z,100394.73
2018-12-17T16:15:55.795Z,100395.76
2018-12-17T16:18:25.364Z,100410.77
2018-12-17T16:20:54.873Z,100410.97
2018-12-17T16:23:24.722Z,100408.84
2018-12-17T16:25:54.573Z,100411.47
2018-12-17T16:28:24.076Z,100413.30
2018-12-17T16:30:54.152Z,100409.48
2018-12-17T16:33:29.717Z,100408.91
2018-12-17T16:35:55.348Z,100418.11
2018-12-17T16:38:25.365Z,100410.27
2018-12-17T16:40:55.000Z,100417.55
2018-12-17T16:43:24.827Z,100409.81
2018-12-17T16:45:54.324Z,100425.78
2018-12-17T16:48:23.784Z,100427.91
2018-12-17T16:50:54.204Z,100430.93
2018-12-17T16:53:23.671Z,100431.33
2018-12-17T16:55:53.952Z,100427.14
2018-12-17T16:58:23.479Z,100427.71
2018-12-17T17:00:53.068Z,100439.86
2018-12-17T17:03:23.020Z,100447.14
2018-12-17T17:05:53.874Z,100453.30
2018-12-17T17:08:23.404Z,100450.56
2018-12-17T17:10:52.918Z,100454.41
2018-12-17T17:13:22.555Z,100455.70
2018-12-17T17:15:52.586Z,100448.91
2018-12-17T17:18:23.003Z,100455.15
2018-12-17T17:20:52.679Z,100459.30
2018-12-17T17:23:22.364Z,100455.96
2018-12-17T17:25:52.040Z,100454.70
2018-12-17T17:28:21.590Z,100458.95
2018-12-17T17:30:51.177Z,100471.67
2018-12-17T17:33:20.751Z,100466.51
2018-12-17T17:35:50.555Z,100471.27
2018-12-17T17:38:20.181Z,100472.13
2018-12-17T17:40:50.413Z,100475.50
2018-12-17T17:43:20.146Z,100490.10
2018-12-17T17:45:49.746Z,100489.59
2018-12-17T17:48:19.360Z,100494.37
2018-12-17T17:50:48.978Z,100489.11
2018-12-17T17:53:19.150Z,100478.52
2018-12-17T17:55:48.757Z,100476.20
2018-12-17T17:58:18.317Z,100474.79
2018-12-17T18:00:47.876Z,100486.87
2018-12-17T18:03:17.500Z,100492.56
2018-12-17T18:05:47.713Z,100503.59
2018-12-17T18:08:17.314Z,100510.84
2018-12-17T18:10:46.847Z,100516.70
2018-12-17T18:13:16.420Z,100511.66
2018-12-17T18:15:46.072Z,100512.96
2018-12-17T18:18:16.478Z,100518.00
2018-12-17T18:20:46.254Z,100517.65
2018-12-17T18:23:15.840Z,100523.73
2018-12-17T18:25:46.077Z,100530.23
2018-12-17T18:28:16.029Z,100526.23
2018-12-17T18:30:45.502Z,100533.98
2018-12-17T18:33:15.026Z,100536.11
2018-12-17T18:35:44.658Z,100543.10
2018-12-17T18:38:14.209Z,100542.41
2018-12-17T18:40:43.789Z,100548.98
2018-12-17T18:43:13.315Z,100548.04
2018-12-17T18:48:16.236Z,100537.62
2018-12-17T18:50:45.902Z,100544.68
2018-12-17T18:53:15.415Z,100539.13
2018-12-17T18:55:45.131Z,100539.92
2018-12-17T18:58:15.322Z,100539.06
2018-12-17T19:00:45.036Z,100537.05
2018-12-17T19:03:14.690Z,100541.48
2018-12-17T19:05:44.373Z,100534.95
2018-12-17T19:08:13.942Z,100530.88
2018-12-17T19:10:48.997Z,100534.45
2018-12-17T19:13:46.831Z,100529.58
2018-12-17T19:16:17.098Z,100541.55
2018-12-17T19:18:47.232Z,100534.88
2018-12-17T19:21:18.520Z,100531.05
2018-12-17T19:23:50.972Z,100538.66
2018-12-17T19:26:23.792Z,100540.09
2018-12-17T19:28:54.211Z,100538.77
2018-12-17T19:31:23.801Z,100541.80
2018-12-17T19:33:53.352Z,100545.91
2018-12-17T19:36:22.893Z,100536.50
2018-12-17T19:38:52.427Z,100537.69
2018-12-17T19:41:23.929Z,100532.64
2018-12-17T19:43:54.192Z,100533.11
2018-12-17T19:46:23.729Z,100549.11
2018-12-17T19:48:54.657Z,100545.99
2018-12-17T19:51:24.375Z,100545.39
2018-12-17T19:53:58.622Z,100540.08
2018-12-17T19:56:29.124Z,100540.58
2018-12-17T19:58:58.712Z,100543.30
2018-12-17T20:01:28.348Z,100538.09
2018-12-17T20:03:57.953Z,100537.41
2018-12-17T20:09:13.519Z,100540.44
2018-12-17T20:11:43.144Z,100539.92
2018-12-17T20:14:13.489Z,100532.73
2018-12-17T20:16:42.995Z,100529.23
2018-12-17T20:19:13.444Z,100536.42
2018-12-17T20:21:43.078Z,100546.36
2018-12-17T20:24:12.609Z,100527.36
2018-12-17T20:26:42.124Z,100529.83
2018-12-17T20:29:12.632Z,100532.94
2018-12-17T20:31:42.331Z,100524.92
2018-12-17T20:34:11.911Z,100531.38
2018-12-17T20:36:41.456Z,100532.12
2018-12-17T20:39:11.146Z,100533.59
2018-12-17T20:41:40.781Z,100527.58
2018-12-17T20:44:10.585Z,100526.53
2018-12-17T20:46:40.197Z,100526.97
2018-12-17T20:49:09.677Z,100521.56
2018-12-17T20:51:39.297Z,100521.93
2018-12-17T20:54:09.877Z,100512.89
2018-12-17T20:56:39.371Z,100518.01
2018-12-17T20:59:08.857Z,100514.25
2018-12-17T21:01:38.550Z,100523.98
2018-12-17T21:04:11.067Z,100536.38
2018-12-17T21:06:40.656Z,100526.27
2018-12-17T21:09:10.550Z,100537.65
2018-12-17T21:11:40.194Z,100529.70
2018-12-17T21:14:09.845Z,100524.02
2018-12-17T21:16:39.410Z,100537.31
2018-12-17T21:19:09.020Z,100540.18
2018-12-17T21:21:38.648Z,100544.36
2018-12-17T21:24:08.280Z,100537.84
2018-12-17T21:26:38.275Z,100544.17
2018-12-17T21:29:07.885Z,100545.22
2018-12-17T21:31:37.672Z,100549.81
2018-12-17T21:34:07.437Z,100549.83
2018-12-17T21:36:37.138Z,100554.14
2018-12-17T21:39:07.769Z,100553.91
2018-12-17T21:41:37.425Z,100556.19
2018-12-17T21:44:07.033Z,100558.67
2018-12-17T21:46:36.597Z,100557.17
2018-12-17T21:49:07.033Z,100558.55
2018-12-17T21:51:36.700Z,100566.35
2018-12-17T21:54:06.345Z,100565.41
2018-12-17T21:56:35.926Z,100566.27
2018-12-17T21:59:05.595Z,100566.23
2018-12-17T22:01:35.110Z,100569.62
2018-12-17T22:04:04.663Z,100568.00
2018-12-17T22:06:34.328Z,100571.03
2018-12-17T22:09:04.530Z,100572.30
2018-12-17T22:11:34.180Z,100572.34
2018-12-17T22:14:03.875Z,100578.32
2018-12-17T22:19:16.645Z,100580.72
2018-12-17T22:21:46.313Z,100577.80
2018-12-17T22:24:15.946Z,100571.61
2018-12-17T22:26:45.519Z,100566.45
2018-12-17T22:29:15.133Z,100573.63
2018-12-17T22:31:44.780Z,100570.23
2018-12-17T22:34:14.498Z,100568.62
2018-12-17T22:36:44.242Z,100570.75
2018-12-17T22:39:13.900Z,100569.48
2018-12-17T22:41:48.973Z,100570.78
2018-12-17T22:44:18.503Z,100570.00
2018-12-17T22:46:48.109Z,100563.61
2018-12-17T22:49:17.659Z,100574.53
2018-12-17T22:51:47.256Z,100576.34
2018-12-17T22:54:16.819Z,100573.09
2018-12-17T22:56:46.447Z,100569.71
2018-12-17T22:59:16.013Z,100576.06
2018-12-17T23:01:45.753Z,100573.14
2018-12-17T23:04:15.259Z,100576.75
2018-12-17T23:06:44.775Z,100571.88
2018-12-17T23:09:13.079Z,100582.36
2018-12-17T23:11:58.966Z,100580.59
2018-12-17T23:14:39.607Z,100577.39
2018-12-17T23:17:20.262Z,100572.97
2018-12-17T23:19:50.151Z,100574.23
2018-12-17T23:22:20.343Z,100587.70
2018-12-17T23:24:50.027Z,100577.15
2018-12-17T23:27:19.566Z,100563.31
2018-12-17T23:29:49.044Z,100555.23
2018-12-17T23:32:18.628Z,100565.55
2018-12-17T23:34:48.370Z,100571.58
2018-12-17T23:37:17.943Z,100577.03
2018-12-17T23:39:47.476Z,100573.53
2018-12-17T23:42:17.008Z,100577.95
2018-12-17T23:44:46.685Z,100582.09
2018-12-17T23:47:16.243Z,100578.55
2018-12-17T23:49:45.849Z,100580.20
2018-12-17T23:52:15.460Z,100580.01
2018-12-17T23:54:45.008Z,100579.30
2018-12-17T23:57:14.588Z,100574.09
2018-12-17T23:59:44.988Z,100572.05
